createdAt,value
2022-09-15T00:01:08.039Z,13.39
2022-09-15T00:03:38.766Z,13.41
2022-09-15T00:06:09.685Z,13.41
2022-09-15T00:08:40.477Z,13.36
2022-09-15T00:11:16.241Z,13.40
2022-09-15T00:13:47.222Z,13.41
2022-09-15T00:16:19.869Z,13.42
2022-09-15T00:18:50.389Z,13.40
2022-09-15T00:21:26.625Z,13.39
2022-09-15T00:23:57.314Z,13.34
2022-09-15T00:26:29.143Z,13.33
2022-09-15T00:29:00.372Z,13.34
2022-09-15T00:31:31.963Z,13.33
2022-09-15T00:34:03.002Z,13.31
2022-09-15T00:36:33.575Z,13.30
2022-09-15T00:39:04.147Z,13.30
2022-09-15T00:41:34.597Z,13.33
2022-09-15T00:44:36.336Z,13.30
2022-09-15T00:47:19.328Z,13.35
2022-09-15T00:49:58.790Z,13.33
2022-09-15T00:52:36.274Z,13.29
2022-09-15T00:55:24.202Z,13.28
2022-09-15T00:57:57.340Z,13.20
2022-09-15T01:00:28.586Z,13.22
2022-09-15T01:02:59.317Z,13.25
2022-09-15T01:05:34.870Z,13.25
2022-09-15T01:08:09.184Z,13.28
2022-09-15T01:10:41.375Z,13.31
2022-09-15T01:13:13.585Z,13.36
2022-09-15T01:19:43.661Z,13.40
2022-09-15T01:22:38.658Z,13.41
2022-09-15T01:25:28.053Z,13.42
2022-09-15T01:28:26.248Z,13.44
2022-09-15T01:31:12.327Z,13.37
2022-09-15T01:34:06.368Z,13.38
2022-09-15T01:36:44.473Z,13.39
2022-09-15T01:39:20.976Z,13.37
2022-09-15T01:41:53.714Z,13.40
2022-09-15T01:44:32.515Z,13.30
2022-09-15T01:47:08.179Z,13.34
2022-09-15T01:50:03.008Z,13.34
2022-09-15T01:52:33.876Z,13.33
2022-09-15T01:55:18.432Z,13.37
2022-09-15T01:57:49.156Z,13.37
2022-09-15T02:00:19.448Z,13.36
2022-09-15T02:03:17.435Z,13.41
2022-09-15T02:05:59.144Z,13.41
2022-09-15T02:08:40.088Z,13.43
2022-09-15T02:11:16.441Z,13.44
2022-09-15T02:13:58.272Z,13.43
2022-09-15T02:16:32.606Z,13.42
2022-09-15T02:19:32.142Z,13.46
2022-09-15T02:22:31.078Z,13.49
2022-09-15T02:25:08.271Z,13.45
2022-09-15T02:27:46.309Z,13.47
2022-09-15T02:30:19.825Z,13.43
2022-09-15T02:33:01.310Z,13.43
2022-09-15T02:35:35.079Z,13.43
2022-09-15T02:38:09.306Z,13.43
2022-09-15T02:40:44.885Z,13.42
2022-09-15T02:43:17.315Z,13.43
2022-09-15T02:45:47.984Z,13.41
2022-09-15T02:48:18.317Z,13.39
2022-09-15T02:50:48.400Z,13.36
2022-09-15T02:53:18.599Z,13.37
2022-09-15T02:55:49.679Z,13.38
2022-09-15T02:58:19.853Z,13.40
2022-09-15T03:00:50.894Z,13.40
2022-09-15T03:03:22.127Z,13.37
2022-09-15T03:05:52.278Z,13.34
2022-09-15T03:08:22.433Z,13.39
2022-09-15T03:10:52.606Z,13.33
2022-09-15T03:13:23.426Z,13.40
2022-09-15T03:15:53.587Z,13.37
2022-09-15T03:18:23.762Z,13.39
2022-09-15T03:20:57.036Z,13.37
2022-09-15T03:23:27.493Z,13.39
2022-09-15T03:25:59.428Z,13.39
2022-09-15T03:28:29.831Z,13.38
2022-09-15T03:30:59.984Z,13.37
2022-09-15T03:33:30.098Z,13.38
2022-09-15T03:36:00.720Z,13.39
2022-09-15T03:38:31.100Z,13.38
2022-09-15T03:41:02.765Z,13.35
2022-09-15T03:43:33.368Z,13.37
2022-09-15T03:46:05.557Z,13.36
2022-09-15T03:48:36.488Z,13.35
2022-09-15T03:51:08.516Z,13.34
2022-09-15T03:53:40.775Z,13.31
2022-09-15T03:56:24.708Z,13.34
2022-09-15T03:58:54.936Z,13.34
2022-09-15T04:01:25.976Z,13.33
2022-09-15T04:03:57.002Z,13.29
2022-09-15T04:06:27.500Z,13.30
2022-09-15T04:09:00.335Z,13.26
2022-09-15T04:11:31.095Z,13.27
2022-09-15T04:14:01.234Z,13.24
2022-09-15T04:16:31.488Z,13.24
2022-09-15T04:19:01.724Z,13.20
2022-09-15T04:21:32.208Z,13.21
2022-09-15T04:24:04.917Z,13.19
2022-09-15T04:26:37.181Z,13.19
2022-09-15T04:29:15.188Z,13.16
2022-09-15T04:31:45.689Z,13.08
2022-09-15T04:34:16.089Z,13.16
2022-09-15T04:36:46.841Z,13.14
2022-09-15T04:39:17.001Z,13.17
2022-09-15T04:41:47.253Z,13.13
2022-09-15T04:44:17.532Z,13.16
2022-09-15T04:46:48.892Z,13.13
2022-09-15T04:49:19.229Z,13.09
2022-09-15T04:51:49.474Z,13.16
2022-09-15T04:54:20.260Z,13.13
2022-09-15T04:56:50.463Z,13.17
2022-09-15T04:59:20.770Z,13.16
2022-09-15T05:01:55.486Z,13.20
2022-09-15T05:04:25.958Z,13.18
2022-09-15T05:06:56.096Z,13.16
2022-09-15T05:09:28.008Z,13.05
2022-09-15T05:11:58.202Z,13.15
2022-09-15T05:14:28.405Z,13.15
2022-09-15T05:16:58.501Z,13.16
2022-09-15T05:19:28.667Z,13.12
2022-09-15T05:21:58.756Z,13.04
2022-09-15T05:24:28.935Z,13.17
2022-09-15T05:26:59.389Z,13.16
2022-09-15T05:29:29.521Z,13.17
2022-09-15T05:31:59.713Z,13.08
2022-09-15T05:34:37.630Z,13.08
2022-09-15T05:37:08.008Z,13.10
2022-09-15T05:39:39.467Z,13.15
2022-09-15T05:42:09.662Z,13.16
2022-09-15T05:44:39.805Z,13.15
2022-09-15T05:47:10.647Z,13.21
2022-09-15T05:49:40.753Z,13.20
2022-09-15T05:52:10.826Z,13.17
2022-09-15T05:54:41.207Z,13.22
2022-09-15T05:57:11.605Z,13.22
2022-09-15T05:59:44.035Z,13.21
2022-09-15T06:02:14.313Z,13.23
2022-09-15T06:04:44.593Z,13.35
2022-09-15T06:07:14.882Z,13.28
2022-09-15T06:09:45.369Z,13.41
2022-09-15T06:12:17.941Z,13.41
2022-09-15T06:14:50.655Z,13.45
2022-09-15T06:17:22.365Z,13.51
2022-09-15T06:19:52.535Z,13.47
2022-09-15T06:22:22.673Z,13.46
2022-09-15T06:24:53.124Z,13.47
2022-09-15T06:27:23.375Z,13.50
2022-09-15T06:29:53.516Z,13.52
2022-09-15T06:32:23.793Z,13.52
2022-09-15T06:34:54.011Z,13.51
2022-09-15T06:37:24.383Z,13.66
2022-09-15T06:39:54.513Z,13.71
2022-09-15T06:42:24.892Z,13.75
2022-09-15T06:44:55.101Z,13.82
2022-09-15T06:47:25.318Z,13.85
2022-09-15T06:49:55.921Z,13.88
2022-09-15T06:52:26.005Z,13.92
2022-09-15T06:54:56.241Z,13.97
2022-09-15T06:57:26.425Z,14.04
2022-09-15T06:59:56.675Z,14.07
2022-09-15T07:02:26.958Z,14.10
2022-09-15T07:04:57.142Z,14.16
2022-09-15T07:07:27.906Z,14.19
2022-09-15T07:09:58.105Z,14.20
2022-09-15T07:12:29.548Z,14.25
2022-09-15T07:14:59.721Z,14.24
2022-09-15T07:17:29.901Z,14.33
2022-09-15T07:20:00.702Z,14.25
2022-09-15T07:22:30.841Z,14.39
2022-09-15T07:25:00.994Z,14.44
2022-09-15T07:27:31.904Z,14.46
2022-09-15T07:30:02.539Z,14.48
2022-09-15T07:32:33.460Z,14.52
2022-09-15T07:35:03.899Z,14.52
2022-09-15T07:37:34.066Z,14.50
2022-09-15T07:40:04.579Z,14.45
2022-09-15T07:42:35.580Z,14.42
2022-09-15T07:45:06.471Z,14.44
2022-09-15T07:47:36.695Z,14.43
2022-09-15T07:50:07.413Z,14.46
2022-09-15T07:52:37.613Z,14.44
2022-09-15T07:55:09.568Z,14.44
2022-09-15T07:57:39.737Z,14.46
2022-09-15T08:00:10.581Z,14.40
2022-09-15T08:02:41.064Z,14.52
2022-09-15T08:05:11.159Z,14.50
2022-09-15T08:07:41.318Z,14.52
2022-09-15T08:10:11.661Z,14.55
2022-09-15T08:12:42.457Z,14.59
2022-09-15T08:15:12.575Z,14.58
2022-09-15T08:17:42.665Z,14.63
2022-09-15T08:20:13.828Z,14.73
2022-09-15T08:22:45.748Z,14.73
2022-09-15T08:25:15.929Z,14.74
2022-09-15T08:27:46.048Z,14.73
2022-09-15T08:30:18.280Z,14.70
2022-09-15T08:32:49.312Z,14.81
2022-09-15T08:35:20.098Z,14.83
2022-09-15T08:37:50.137Z,14.92
2022-09-15T08:40:24.317Z,14.90
2022-09-15T08:43:01.884Z,14.94
2022-09-15T08:45:56.046Z,14.90
2022-09-15T08:48:31.893Z,14.90
2022-09-15T08:51:12.216Z,14.93
2022-09-15T08:53:50.124Z,14.86
2022-09-15T08:56:21.238Z,15.05
2022-09-15T08:58:51.361Z,15.14
2022-09-15T09:01:39.618Z,15.22
2022-09-15T09:04:19.729Z,15.29
2022-09-15T09:07:16.351Z,15.17
2022-09-15T09:09:57.233Z,15.22
2022-09-15T09:13:13.275Z,15.43
2022-09-15T09:15:58.447Z,15.51
2022-09-15T09:19:01.109Z,15.53
2022-09-15T09:21:37.856Z,15.54
2022-09-15T09:24:24.983Z,15.57
2022-09-15T09:26:55.960Z,15.50
2022-09-15T09:29:40.456Z,15.60
2022-09-15T09:32:43.936Z,15.68
2022-09-15T09:35:21.694Z,15.67
2022-09-15T09:37:52.822Z,15.69
2022-09-15T09:40:23.322Z,15.69
2022-09-15T09:42:54.431Z,15.77
2022-09-15T09:45:24.528Z,15.86
2022-09-15T09:48:02.405Z,15.85
2022-09-15T09:50:43.722Z,15.90
2022-09-15T09:53:28.136Z,15.98
2022-09-15T09:56:26.617Z,16.10
2022-09-15T09:58:56.900Z,16.22
2022-09-15T10:01:27.570Z,16.31
2022-09-15T10:04:18.333Z,16.34
2022-09-15T10:06:49.424Z,16.33
2022-09-15T10:09:19.929Z,16.31
2022-09-15T10:11:54.198Z,16.36
2022-09-15T10:14:30.454Z,16.36
2022-09-15T10:17:06.395Z,16.42
2022-09-15T10:19:55.130Z,16.48
2022-09-15T10:22:28.207Z,16.50
2022-09-15T10:25:04.556Z,16.46
2022-09-15T10:27:35.931Z,16.54
2022-09-15T10:30:15.077Z,16.53
2022-09-15T10:32:45.502Z,16.48
2022-09-15T10:35:20.602Z,16.55
2022-09-15T10:37:53.645Z,16.68
2022-09-15T10:40:43.986Z,16.81
2022-09-15T10:43:14.036Z,16.87
2022-09-15T10:45:49.081Z,16.83
2022-09-15T10:48:48.448Z,16.76
2022-09-15T10:51:50.617Z,16.85
2022-09-15T10:54:50.643Z,16.98
2022-09-15T11:00:22.750Z,17.13
2022-09-15T11:03:25.023Z,17.14
2022-09-15T11:06:17.562Z,17.19
2022-09-15T11:08:56.456Z,17.13
2022-09-15T11:11:52.660Z,17.14
2022-09-15T11:14:43.736Z,17.18
2022-09-15T11:17:35.391Z,17.18
2022-09-15T11:20:20.020Z,17.14
2022-09-15T11:23:22.834Z,17.22
2022-09-15T11:26:13.171Z,17.33
2022-09-15T11:28:54.038Z,17.33
2022-09-15T11:31:48.014Z,17.42
2022-09-15T11:34:30.688Z,17.44
2022-09-15T11:37:10.086Z,17.41
2022-09-15T11:39:53.643Z,17.31
2022-09-15T11:42:36.325Z,17.51
2022-09-15T11:45:17.814Z,17.77
2022-09-15T11:47:52.874Z,17.85
2022-09-15T11:50:25.980Z,17.92
2022-09-15T11:53:16.874Z,17.93
2022-09-15T11:56:00.843Z,17.93
2022-09-15T11:58:33.701Z,17.81
2022-09-15T12:01:25.268Z,17.77
2022-09-15T12:04:04.855Z,17.74
2022-09-15T12:07:14.607Z,17.87
2022-09-15T12:09:45.693Z,17.85
2022-09-15T12:12:20.553Z,18.01
2022-09-15T12:14:53.808Z,18.02
2022-09-15T12:17:41.118Z,18.05
2022-09-15T12:20:23.618Z,18.05
2022-09-15T12:23:03.210Z,18.01
2022-09-15T12:26:02.317Z,17.83
2022-09-15T12:28:52.525Z,17.82
2022-09-15T12:31:37.350Z,17.81
2022-09-15T12:34:25.722Z,17.67
2022-09-15T12:37:09.046Z,17.64
2022-09-15T12:39:47.234Z,17.54
2022-09-15T12:42:23.746Z,17.37
2022-09-15T12:45:12.436Z,17.28
2022-09-15T12:47:50.895Z,17.17
2022-09-15T12:50:36.619Z,17.08
2022-09-15T12:53:14.783Z,16.94
2022-09-15T12:55:57.435Z,16.93
2022-09-15T12:58:38.159Z,17.05
2022-09-15T13:01:26.409Z,17.20
2022-09-15T13:03:59.655Z,17.13
2022-09-15T13:06:37.924Z,17.02
2022-09-15T13:09:28.444Z,16.99
2022-09-15T13:11:58.653Z,16.80
2022-09-15T13:14:42.171Z,16.66
2022-09-15T13:17:25.466Z,16.55
2022-09-15T13:20:00.265Z,16.51
2022-09-15T13:22:37.825Z,16.67
2022-09-15T13:25:11.104Z,16.74
2022-09-15T13:27:45.753Z,16.81
2022-09-15T13:30:22.161Z,16.96
2022-09-15T13:33:19.260Z,16.98
2022-09-15T13:35:52.482Z,16.85
2022-09-15T13:38:31.847Z,16.82
2022-09-15T13:41:14.279Z,16.79
2022-09-15T13:44:03.181Z,16.79
2022-09-15T13:47:02.723Z,16.69
2022-09-15T13:49:59.859Z,16.65
2022-09-15T13:52:59.273Z,16.72
2022-09-15T13:55:33.895Z,16.79
2022-09-15T14:01:05.803Z,17.02
2022-09-15T14:03:49.049Z,16.94
2022-09-15T14:06:30.436Z,16.92
2022-09-15T14:09:13.748Z,16.81
2022-09-15T14:11:47.279Z,16.69
2022-09-15T14:14:50.952Z,16.71
2022-09-15T14:17:28.988Z,16.70
2022-09-15T14:20:01.074Z,16.57
2022-09-15T14:22:33.826Z,16.52
2022-09-15T14:25:14.653Z,16.49
2022-09-15T14:27:50.176Z,16.46
2022-09-15T14:30:25.111Z,16.48
2022-09-15T14:33:00.864Z,16.44
2022-09-15T14:35:38.259Z,16.44
2022-09-15T14:38:25.876Z,16.43
2022-09-15T14:41:01.159Z,16.39
2022-09-15T14:43:37.783Z,16.44
2022-09-15T14:46:20.647Z,16.56
2022-09-15T14:48:53.687Z,16.69
2022-09-15T14:51:33.901Z,16.67
2022-09-15T14:54:07.688Z,16.72
2022-09-15T14:56:42.667Z,16.79
2022-09-15T14:59:30.189Z,16.84
2022-09-15T15:02:20.812Z,16.89
2022-09-15T15:04:59.464Z,16.82
2022-09-15T15:07:32.273Z,16.63
2022-09-15T15:10:06.241Z,16.54
2022-09-15T15:12:41.542Z,16.46
2022-09-15T15:15:16.592Z,16.38
2022-09-15T15:17:54.852Z,16.42
2022-09-15T15:20:33.100Z,16.44
2022-09-15T15:23:26.020Z,16.60
2022-09-15T15:26:27.432Z,16.65
2022-09-15T15:28:57.524Z,16.62
2022-09-15T15:31:33.006Z,16.40
2022-09-15T15:34:06.520Z,16.57
2022-09-15T15:36:36.701Z,16.64
2022-09-15T15:39:19.388Z,16.77
2022-09-15T15:44:27.631Z,16.87
2022-09-15T15:47:01.648Z,16.80
2022-09-15T15:49:32.715Z,16.71
2022-09-15T15:52:03.088Z,16.69
2022-09-15T15:54:34.335Z,16.55
2022-09-15T15:57:21.993Z,16.28
2022-09-15T15:59:58.531Z,16.19
2022-09-15T16:02:28.957Z,16.03
2022-09-15T16:04:59.132Z,15.97
2022-09-15T16:07:33.399Z,15.91
2022-09-15T16:10:04.701Z,16.01
2022-09-15T16:12:35.541Z,15.92
2022-09-15T16:15:32.543Z,16.18
2022-09-15T16:18:02.713Z,16.20
2022-09-15T16:20:33.229Z,16.27
2022-09-15T16:23:03.680Z,16.37
2022-09-15T16:25:42.464Z,16.30
2022-09-15T16:28:12.883Z,16.35
2022-09-15T16:30:43.113Z,16.35
2022-09-15T16:33:18.203Z,16.30
2022-09-15T16:35:56.062Z,16.18
2022-09-15T16:38:28.340Z,16.01
2022-09-15T16:40:58.452Z,15.95
2022-09-15T16:43:28.826Z,15.80
2022-09-15T16:45:58.954Z,15.69
2022-09-15T16:48:29.158Z,15.62
2022-09-15T16:51:20.974Z,15.48
2022-09-15T16:53:51.268Z,15.34
2022-09-15T16:56:21.397Z,15.28
2022-09-15T16:58:58.909Z,15.15
2022-09-15T17:01:30.261Z,15.07
2022-09-15T17:04:01.940Z,15.03
2022-09-15T17:06:32.148Z,14.87
2022-09-15T17:09:02.352Z,14.76
2022-09-15T17:11:32.472Z,14.70
2022-09-15T17:14:02.597Z,14.54
2022-09-15T17:16:32.756Z,14.42
2022-09-15T17:19:02.895Z,14.33
2022-09-15T17:21:33.140Z,14.33
2022-09-15T17:24:03.447Z,14.22
2022-09-15T17:26:33.683Z,14.17
2022-09-15T17:29:03.798Z,14.09
2022-09-15T17:31:34.043Z,14.01
2022-09-15T17:34:04.358Z,14.03
2022-09-15T17:36:36.305Z,13.98
2022-09-15T17:39:06.597Z,13.88
2022-09-15T17:41:38.711Z,13.67
2022-09-15T17:44:11.056Z,13.72
2022-09-15T17:46:41.225Z,13.66
2022-09-15T17:49:11.612Z,13.65
2022-09-15T17:51:41.818Z,13.64
2022-09-15T17:54:13.632Z,13.56
2022-09-15T17:56:43.832Z,13.50
2022-09-15T17:59:16.217Z,13.47
2022-09-15T18:01:46.907Z,13.51
2022-09-15T18:04:17.019Z,13.48
2022-09-15T18:06:47.201Z,13.48
2022-09-15T18:09:17.865Z,13.40
2022-09-15T18:11:48.140Z,13.37
2022-09-15T18:14:18.319Z,13.33
2022-09-15T18:16:48.443Z,13.32
2022-09-15T18:19:18.655Z,13.27
2022-09-15T18:21:53.086Z,13.17
2022-09-15T18:24:23.305Z,13.15
2022-09-15T18:26:54.448Z,13.08
2022-09-15T18:29:24.567Z,13.04
2022-09-15T18:31:54.803Z,12.94
2022-09-15T18:34:25.141Z,12.91
2022-09-15T18:36:55.633Z,12.85
2022-09-15T18:39:26.242Z,12.82
2022-09-15T18:41:56.517Z,12.84
2022-09-15T18:44:26.647Z,12.76
2022-09-15T18:46:56.815Z,12.79
2022-09-15T18:49:26.939Z,12.77
2022-09-15T18:51:57.155Z,12.68
2022-09-15T18:54:27.316Z,12.60
2022-09-15T18:56:58.212Z,12.62
2022-09-15T18:59:29.782Z,12.57
2022-09-15T19:01:59.988Z,12.48
2022-09-15T19:04:32.760Z,12.44
2022-09-15T19:07:05.306Z,12.50
2022-09-15T19:09:36.105Z,12.42
2022-09-15T19:12:06.436Z,12.42
2022-09-15T19:14:36.678Z,12.34
2022-09-15T19:17:06.861Z,12.36
2022-09-15T19:19:37.072Z,12.21
2022-09-15T19:22:07.591Z,12.27
2022-09-15T19:24:37.940Z,12.20
2022-09-15T19:27:09.044Z,12.11
2022-09-15T19:29:39.784Z,12.09
2022-09-15T19:32:13.163Z,12.10
2022-09-15T19:34:43.338Z,11.93
2022-09-15T19:37:18.777Z,12.00
2022-09-15T19:39:50.070Z,11.92
2022-09-15T19:42:20.395Z,11.87
2022-09-15T19:44:50.644Z,11.83
2022-09-15T19:47:20.852Z,11.79
2022-09-15T19:49:54.227Z,11.75
2022-09-15T19:52:24.487Z,11.67
2022-09-15T19:54:55.033Z,11.67
2022-09-15T19:57:25.306Z,11.58
2022-09-15T19:59:57.818Z,11.55
2022-09-15T20:02:28.164Z,11.51
2022-09-15T20:07:48.919Z,11.47
2022-09-15T20:10:19.402Z,11.43
2022-09-15T20:12:49.579Z,11.41
2022-09-15T20:15:19.781Z,11.35
2022-09-15T20:17:50.279Z,11.29
2022-09-15T20:20:20.576Z,11.18
2022-09-15T20:22:50.720Z,11.26
2022-09-15T20:25:21.081Z,11.22
2022-09-15T20:27:52.826Z,11.23
2022-09-15T20:30:23.854Z,11.23
2022-09-15T20:32:54.157Z,11.18
2022-09-15T20:35:24.697Z,11.08
2022-09-15T20:37:54.851Z,11.17
2022-09-15T20:40:26.571Z,11.12
2022-09-15T20:42:56.921Z,11.10
2022-09-15T20:45:27.777Z,11.07
2022-09-15T20:47:57.960Z,11.03
2022-09-15T20:50:28.100Z,11.11
2022-09-15T20:52:58.220Z,11.09
2022-09-15T20:55:30.298Z,11.07
2022-09-15T20:58:00.404Z,11.07
2022-09-15T21:00:33.851Z,11.00
2022-09-15T21:03:04.414Z,11.05
2022-09-15T21:05:34.573Z,11.06
2022-09-15T21:08:05.609Z,11.03
2022-09-15T21:10:35.738Z,10.99
2022-09-15T21:13:07.849Z,11.08
2022-09-15T21:15:38.067Z,11.03
2022-09-15T21:18:08.285Z,11.06
2022-09-15T21:20:38.504Z,11.07
2022-09-15T21:23:09.083Z,11.07
2022-09-15T21:25:39.313Z,11.05
2022-09-15T21:28:10.409Z,11.06
2022-09-15T21:30:40.843Z,11.01
2022-09-15T21:33:11.131Z,11.01
2022-09-15T21:35:42.171Z,11.14
2022-09-15T21:38:12.277Z,11.13
2022-09-15T21:40:47.283Z,11.09
2022-09-15T21:43:17.751Z,11.13
2022-09-15T21:45:48.005Z,11.07
2022-09-15T21:48:18.230Z,11.02
2022-09-15T21:50:52.319Z,11.00
2022-09-15T21:53:22.983Z,11.01
2022-09-15T21:55:53.373Z,11.06
2022-09-15T21:58:26.103Z,11.07
2022-09-15T22:00:56.426Z,11.11
2022-09-15T22:03:26.600Z,11.10
2022-09-15T22:05:57.340Z,11.08
2022-09-15T22:08:27.584Z,11.07
2022-09-15T22:11:01.415Z,11.18
2022-09-15T22:13:32.369Z,11.19
2022-09-15T22:16:04.647Z,11.19
2022-09-15T22:18:40.350Z,11.17
2022-09-15T22:21:19.634Z,11.16
2022-09-15T22:23:51.070Z,11.09
2022-09-15T22:26:24.381Z,11.15
2022-09-15T22:28:55.730Z,11.21
2022-09-15T22:31:27.848Z,11.23
2022-09-15T22:33:59.344Z,11.17
2022-09-15T22:36:33.153Z,11.26
2022-09-15T22:39:05.489Z,11.24
2022-09-15T22:41:40.782Z,11.28
2022-09-15T22:44:23.414Z,11.28
2022-09-15T22:46:56.545Z,11.30
2022-09-15T22:49:29.093Z,11.29
2022-09-15T22:52:02.354Z,11.32
2022-09-15T22:54:35.243Z,11.35
2022-09-15T22:57:08.723Z,11.38
2022-09-15T22:59:40.907Z,11.44
2022-09-15T23:02:13.598Z,11.46
2022-09-15T23:04:46.263Z,11.33
2022-09-15T23:07:16.377Z,11.48
2022-09-15T23:09:46.525Z,11.41
2022-09-15T23:12:16.782Z,11.46
2022-09-15T23:14:46.908Z,11.44
2022-09-15T23:17:17.065Z,11.43
2022-09-15T23:19:47.368Z,11.38
2022-09-15T23:22:17.540Z,11.35
2022-09-15T23:24:47.840Z,11.23
2022-09-15T23:27:17.964Z,11.19
2022-09-15T23:29:48.098Z,11.08
2022-09-15T23:32:18.265Z,11.02
2022-09-15T23:34:49.150Z,10.97
2022-09-15T23:37:19.239Z,10.93
2022-09-15T23:39:49.521Z,10.80
2022-09-15T23:42:19.733Z,10.76
2022-09-15T23:44:50.031Z,10.74
2022-09-15T23:47:20.143Z,10.68
2022-09-15T23:49:50.286Z,10.62
2022-09-15T23:52:20.415Z,10.56
2022-09-15T23:54:50.595Z,10.56
2022-09-15T23:57:20.773Z,10.55
2022-09-15T23:59:50.950Z,10.47
